sensor_id;sensor_type;location;lat;lon;timestamp;P1;durP1;ratioP1;P2;durP2;ratioP2
43345;SDS011;28937;51.160;4.146;2023-07-31T00:01:39;12.07;;;6.38;;
43345;SDS011;28937;51.160;4.146;2023-07-31T00:04:05;14.20;;;6.18;;
43345;SDS011;28937;51.160;4.146;2023-07-31T00:06:30;11.95;;;6.20;;
43345;SDS011;28937;51.160;4.146;2023-07-31T00:08:56;13.77;;;5.90;;
43345;SDS011;28937;51.160;4.146;2023-07-31T00:11:21;12.27;;;5.50;;
43345;SDS011;28937;51.160;4.146;2023-07-31T00:13:47;13.02;;;5.15;;
43345;SDS011;28937;51.160;4.146;2023-07-31T00:16:12;12.57;;;5.63;;
43345;SDS011;28937;51.160;4.146;2023-07-31T00:18:38;15.10;;;6.45;;
43345;SDS011;28937;51.160;4.146;2023-07-31T00:21:04;14.10;;;5.68;;
43345;SDS011;28937;51.160;4.146;2023-07-31T00:23:29;13.70;;;5.45;;
43345;SDS011;28937;51.160;4.146;2023-07-31T00:25:55;15.70;;;6.13;;
43345;SDS011;28937;51.160;4.146;2023-07-31T00:28:20;12.75;;;5.57;;
43345;SDS011;28937;51.160;4.146;2023-07-31T00:30:46;16.85;;;6.57;;
43345;SDS011;28937;51.160;4.146;2023-07-31T00:33:11;15.60;;;6.10;;
43345;SDS011;28937;51.160;4.146;2023-07-31T00:35:37;13.27;;;6.32;;
43345;SDS011;28937;51.160;4.146;2023-07-31T00:38:02;14.38;;;6.35;;
43345;SDS011;28937;51.160;4.146;2023-07-31T00:40:28;12.82;;;5.72;;
43345;SDS011;28937;51.160;4.146;2023-07-31T00:42:53;13.82;;;5.82;;
43345;SDS011;28937;51.160;4.146;2023-07-31T00:45:19;16.08;;;6.40;;
43345;SDS011;28937;51.160;4.146;2023-07-31T00:47:47;15.65;;;6.10;;
43345;SDS011;28937;51.160;4.146;2023-07-31T00:50:13;13.00;;;6.35;;
43345;SDS011;28937;51.160;4.146;2023-07-31T00:52:39;12.52;;;6.07;;
43345;SDS011;28937;51.160;4.146;2023-07-31T00:55:05;11.75;;;5.60;;
43345;SDS011;28937;51.160;4.146;2023-07-31T00:57:32;12.23;;;6.20;;
43345;SDS011;28937;51.160;4.146;2023-07-31T00:59:58;15.23;;;6.40;;
43345;SDS011;28937;51.160;4.146;2023-07-31T01:02:23;15.57;;;6.82;;
43345;SDS011;28937;51.160;4.146;2023-07-31T01:04:49;15.95;;;6.28;;
43345;SDS011;28937;51.160;4.146;2023-07-31T01:12:27;13.13;;;6.63;;
43345;SDS011;28937;51.160;4.146;2023-07-31T01:15:07;13.70;;;6.40;;
43345;SDS011;28937;51.160;4.146;2023-07-31T01:17:37;14.90;;;6.75;;
43345;SDS011;28937;51.160;4.146;2023-07-31T01:20:05;16.80;;;6.30;;
43345;SDS011;28937;51.160;4.146;2023-07-31T01:22:41;13.98;;;6.30;;
43345;SDS011;28937;51.160;4.146;2023-07-31T01:28:03;12.73;;;5.97;;
43345;SDS011;28937;51.160;4.146;2023-07-31T01:30:32;13.10;;;5.45;;
43345;SDS011;28937;51.160;4.146;2023-07-31T01:33:02;14.18;;;6.28;;
43345;SDS011;28937;51.160;4.146;2023-07-31T01:35:34;15.07;;;5.85;;
43345;SDS011;28937;51.160;4.146;2023-07-31T01:38:01;15.57;;;5.95;;
43345;SDS011;28937;51.160;4.146;2023-07-31T01:40:26;13.65;;;5.68;;
43345;SDS011;28937;51.160;4.146;2023-07-31T01:42:52;13.30;;;5.82;;
43345;SDS011;28937;51.160;4.146;2023-07-31T01:45:18;13.85;;;5.85;;
43345;SDS011;28937;51.160;4.146;2023-07-31T01:47:43;13.20;;;5.95;;
43345;SDS011;28937;51.160;4.146;2023-07-31T01:50:09;12.98;;;5.90;;
43345;SDS011;28937;51.160;4.146;2023-07-31T01:52:34;14.48;;;5.95;;
43345;SDS011;28937;51.160;4.146;2023-07-31T01:55:00;9.65;;;4.97;;
43345;SDS011;28937;51.160;4.146;2023-07-31T01:57:26;14.80;;;5.35;;
43345;SDS011;28937;51.160;4.146;2023-07-31T01:59:51;17.35;;;6.32;;
43345;SDS011;28937;51.160;4.146;2023-07-31T02:02:18;15.63;;;5.97;;
43345;SDS011;28937;51.160;4.146;2023-07-31T02:04:44;13.75;;;6.00;;
43345;SDS011;28937;51.160;4.146;2023-07-31T02:07:10;13.05;;;5.57;;
43345;SDS011;28937;51.160;4.146;2023-07-31T02:09:36;14.38;;;5.30;;
43345;SDS011;28937;51.160;4.146;2023-07-31T02:12:01;16.75;;;5.72;;
43345;SDS011;28937;51.160;4.146;2023-07-31T02:14:27;12.68;;;5.18;;
43345;SDS011;28937;51.160;4.146;2023-07-31T02:16:52;13.50;;;4.97;;
43345;SDS011;28937;51.160;4.146;2023-07-31T02:19:18;13.07;;;5.60;;
43345;SDS011;28937;51.160;4.146;2023-07-31T02:21:44;9.85;;;5.43;;
43345;SDS011;28937;51.160;4.146;2023-07-31T02:24:09;12.50;;;6.00;;
43345;SDS011;28937;51.160;4.146;2023-07-31T02:26:35;12.20;;;5.30;;
43345;SDS011;28937;51.160;4.146;2023-07-31T02:29:00;12.07;;;5.40;;
43345;SDS011;28937;51.160;4.146;2023-07-31T02:31:26;11.45;;;5.15;;
43345;SDS011;28937;51.160;4.146;2023-07-31T02:33:51;12.68;;;5.55;;
43345;SDS011;28937;51.160;4.146;2023-07-31T02:36:17;12.43;;;5.22;;
43345;SDS011;28937;51.160;4.146;2023-07-31T02:38:43;15.52;;;5.80;;
43345;SDS011;28937;51.160;4.146;2023-07-31T02:41:08;11.55;;;5.20;;
43345;SDS011;28937;51.160;4.146;2023-07-31T02:43:34;12.40;;;4.95;;
43345;SDS011;28937;51.160;4.146;2023-07-31T02:45:59;14.13;;;5.30;;
43345;SDS011;28937;51.160;4.146;2023-07-31T02:48:25;12.43;;;4.85;;
43345;SDS011;28937;51.160;4.146;2023-07-31T02:50:50;14.88;;;4.85;;
43345;SDS011;28937;51.160;4.146;2023-07-31T02:53:16;11.68;;;5.15;;
43345;SDS011;28937;51.160;4.146;2023-07-31T02:55:41;12.77;;;5.03;;
43345;SDS011;28937;51.160;4.146;2023-07-31T02:58:07;10.65;;;4.55;;
43345;SDS011;28937;51.160;4.146;2023-07-31T03:00:32;9.95;;;4.60;;
43345;SDS011;28937;51.160;4.146;2023-07-31T03:02:58;9.50;;;4.97;;
43345;SDS011;28937;51.160;4.146;2023-07-31T03:05:24;12.93;;;5.28;;
43345;SDS011;28937;51.160;4.146;2023-07-31T03:07:49;13.27;;;5.10;;
43345;SDS011;28937;51.160;4.146;2023-07-31T03:10:15;10.20;;;4.75;;
43345;SDS011;28937;51.160;4.146;2023-07-31T03:12:40;11.75;;;4.65;;
43345;SDS011;28937;51.160;4.146;2023-07-31T03:15:06;8.77;;;4.93;;
43345;SDS011;28937;51.160;4.146;2023-07-31T03:17:32;12.90;;;4.75;;
43345;SDS011;28937;51.160;4.146;2023-07-31T03:19:58;9.77;;;4.32;;
43345;SDS011;28937;51.160;4.146;2023-07-31T03:22:23;12.05;;;4.35;;
43345;SDS011;28937;51.160;4.146;2023-07-31T03:24:49;10.02;;;4.68;;
43345;SDS011;28937;51.160;4.146;2023-07-31T03:27:14;13.45;;;4.70;;
43345;SDS011;28937;51.160;4.146;2023-07-31T03:29:40;11.65;;;4.95;;
43345;SDS011;28937;51.160;4.146;2023-07-31T03:32:06;10.45;;;4.82;;
43345;SDS011;28937;51.160;4.146;2023-07-31T03:34:32;13.70;;;5.40;;
43345;SDS011;28937;51.160;4.146;2023-07-31T03:36:58;10.45;;;4.13;;
43345;SDS011;28937;51.160;4.146;2023-07-31T03:39:23;9.55;;;4.32;;
43345;SDS011;28937;51.160;4.146;2023-07-31T03:41:49;9.95;;;4.43;;
43345;SDS011;28937;51.160;4.146;2023-07-31T03:44:15;9.13;;;4.35;;
43345;SDS011;28937;51.160;4.146;2023-07-31T03:46:40;10.23;;;5.03;;
43345;SDS011;28937;51.160;4.146;2023-07-31T03:49:06;11.88;;;4.50;;
43345;SDS011;28937;51.160;4.146;2023-07-31T03:51:32;11.23;;;4.70;;
43345;SDS011;28937;51.160;4.146;2023-07-31T03:53:57;9.95;;;4.53;;
43345;SDS011;28937;51.160;4.146;2023-07-31T03:56:23;10.27;;;4.85;;
43345;SDS011;28937;51.160;4.146;2023-07-31T03:58:48;14.48;;;5.47;;
43345;SDS011;28937;51.160;4.146;2023-07-31T04:01:14;11.65;;;4.95;;
43345;SDS011;28937;51.160;4.146;2023-07-31T04:03:40;9.82;;;5.50;;
43345;SDS011;28937;51.160;4.146;2023-07-31T04:06:05;10.65;;;4.85;;
43345;SDS011;28937;51.160;4.146;2023-07-31T04:08:32;10.48;;;4.45;;
43345;SDS011;28937;51.160;4.146;2023-07-31T04:10:57;13.00;;;5.07;;
43345;SDS011;28937;51.160;4.146;2023-07-31T04:13:23;10.52;;;5.28;;
43345;SDS011;28937;51.160;4.146;2023-07-31T04:15:49;10.13;;;5.22;;
43345;SDS011;28937;51.160;4.146;2023-07-31T04:18:19;8.77;;;4.78;;
43345;SDS011;28937;51.160;4.146;2023-07-31T04:20:45;9.40;;;4.47;;
43345;SDS011;28937;51.160;4.146;2023-07-31T04:23:10;10.23;;;4.75;;
43345;SDS011;28937;51.160;4.146;2023-07-31T04:25:36;9.40;;;4.75;;
43345;SDS011;28937;51.160;4.146;2023-07-31T04:28:02;10.18;;;4.57;;
43345;SDS011;28937;51.160;4.146;2023-07-31T04:30:27;9.57;;;5.22;;
43345;SDS011;28937;51.160;4.146;2023-07-31T04:32:53;10.50;;;5.03;;
43345;SDS011;28937;51.160;4.146;2023-07-31T04:35:19;11.15;;;5.43;;
43345;SDS011;28937;51.160;4.146;2023-07-31T04:37:44;13.57;;;5.03;;
43345;SDS011;28937;51.160;4.146;2023-07-31T04:40:13;33.83;;;7.38;;
43345;SDS011;28937;51.160;4.146;2023-07-31T04:42:39;10.85;;;4.20;;
43345;SDS011;28937;51.160;4.146;2023-07-31T04:45:05;9.68;;;4.38;;
43345;SDS011;28937;51.160;4.146;2023-07-31T04:47:31;6.47;;;4.20;;
43345;SDS011;28937;51.160;4.146;2023-07-31T04:49:56;6.53;;;4.00;;
43345;SDS011;28937;51.160;4.146;2023-07-31T04:52:22;8.25;;;3.92;;
43345;SDS011;28937;51.160;4.146;2023-07-31T04:54:47;8.95;;;3.58;;
43345;SDS011;28937;51.160;4.146;2023-07-31T04:57:13;8.77;;;4.18;;
43345;SDS011;28937;51.160;4.146;2023-07-31T04:59:39;5.55;;;3.55;;
43345;SDS011;28937;51.160;4.146;2023-07-31T05:02:05;7.10;;;3.75;;
43345;SDS011;28937;51.160;4.146;2023-07-31T05:04:32;6.32;;;3.10;;
43345;SDS011;28937;51.160;4.146;2023-07-31T05:06:57;7.28;;;3.97;;
43345;SDS011;28937;51.160;4.146;2023-07-31T05:09:23;7.70;;;3.75;;
43345;SDS011;28937;51.160;4.146;2023-07-31T05:11:48;8.98;;;3.47;;
43345;SDS011;28937;51.160;4.146;2023-07-31T05:14:14;6.93;;;3.70;;
43345;SDS011;28937;51.160;4.146;2023-07-31T05:16:40;4.47;;;3.47;;
43345;SDS011;28937;51.160;4.146;2023-07-31T05:19:06;6.15;;;3.45;;
43345;SDS011;28937;51.160;4.146;2023-07-31T05:21:32;6.53;;;3.78;;
43345;SDS011;28937;51.160;4.146;2023-07-31T05:23:57;4.47;;;3.00;;
43345;SDS011;28937;51.160;4.146;2023-07-31T05:26:23;5.50;;;3.33;;
43345;SDS011;28937;51.160;4.146;2023-07-31T05:28:48;7.88;;;3.20;;
43345;SDS011;28937;51.160;4.146;2023-07-31T05:31:14;6.47;;;2.67;;
43345;SDS011;28937;51.160;4.146;2023-07-31T05:33:40;3.90;;;2.90;;
43345;SDS011;28937;51.160;4.146;2023-07-31T05:36:05;5.15;;;3.50;;
43345;SDS011;28937;51.160;4.146;2023-07-31T05:38:31;4.50;;;2.90;;
43345;SDS011;28937;51.160;4.146;2023-07-31T05:40:56;4.85;;;2.58;;
43345;SDS011;28937;51.160;4.146;2023-07-31T05:43:22;5.55;;;3.08;;
43345;SDS011;28937;51.160;4.146;2023-07-31T05:45:47;6.03;;;3.30;;
43345;SDS011;28937;51.160;4.146;2023-07-31T05:48:13;5.05;;;3.05;;
43345;SDS011;28937;51.160;4.146;2023-07-31T05:50:39;4.13;;;2.92;;
43345;SDS011;28937;51.160;4.146;2023-07-31T05:53:05;4.85;;;2.85;;
43345;SDS011;28937;51.160;4.146;2023-07-31T05:55:31;3.75;;;3.15;;
43345;SDS011;28937;51.160;4.146;2023-07-31T05:57:57;6.97;;;3.25;;
43345;SDS011;28937;51.160;4.146;2023-07-31T06:00:22;5.68;;;2.90;;
43345;SDS011;28937;51.160;4.146;2023-07-31T06:02:48;5.53;;;3.13;;
43345;SDS011;28937;51.160;4.146;2023-07-31T06:05:14;8.27;;;3.63;;
43345;SDS011;28937;51.160;4.146;2023-07-31T06:07:39;5.18;;;3.10;;
43345;SDS011;28937;51.160;4.146;2023-07-31T06:10:05;5.97;;;3.50;;
43345;SDS011;28937;51.160;4.146;2023-07-31T06:12:32;6.18;;;3.08;;
43345;SDS011;28937;51.160;4.146;2023-07-31T06:14:58;6.55;;;3.88;;
43345;SDS011;28937;51.160;4.146;2023-07-31T06:17:24;5.00;;;3.35;;
43345;SDS011;28937;51.160;4.146;2023-07-31T06:19:50;5.70;;;3.30;;
43345;SDS011;28937;51.160;4.146;2023-07-31T06:22:16;8.32;;;3.67;;
43345;SDS011;28937;51.160;4.146;2023-07-31T06:24:42;6.43;;;4.15;;
43345;SDS011;28937;51.160;4.146;2023-07-31T06:27:08;6.55;;;3.63;;
43345;SDS011;28937;51.160;4.146;2023-07-31T06:29:33;7.75;;;3.90;;
43345;SDS011;28937;51.160;4.146;2023-07-31T06:31:59;7.35;;;3.78;;
43345;SDS011;28937;51.160;4.146;2023-07-31T06:34:25;5.80;;;3.75;;
43345;SDS011;28937;51.160;4.146;2023-07-31T06:36:51;7.10;;;4.28;;
43345;SDS011;28937;51.160;4.146;2023-07-31T06:39:16;7.18;;;3.08;;
43345;SDS011;28937;51.160;4.146;2023-07-31T06:41:42;7.25;;;3.58;;
43345;SDS011;28937;51.160;4.146;2023-07-31T06:44:09;7.22;;;3.47;;
43345;SDS011;28937;51.160;4.146;2023-07-31T06:46:35;6.30;;;3.63;;
43345;SDS011;28937;51.160;4.146;2023-07-31T06:49:00;6.53;;;3.80;;
43345;SDS011;28937;51.160;4.146;2023-07-31T06:51:26;7.60;;;3.58;;
43345;SDS011;28937;51.160;4.146;2023-07-31T06:53:51;7.80;;;3.83;;
43345;SDS011;28937;51.160;4.146;2023-07-31T06:56:17;7.85;;;3.80;;
43345;SDS011;28937;51.160;4.146;2023-07-31T06:58:43;8.10;;;3.72;;
43345;SDS011;28937;51.160;4.146;2023-07-31T07:01:08;8.82;;;3.97;;
43345;SDS011;28937;51.160;4.146;2023-07-31T07:03:34;5.70;;;2.97;;
43345;SDS011;28937;51.160;4.146;2023-07-31T07:05:59;5.68;;;3.50;;
43345;SDS011;28937;51.160;4.146;2023-07-31T07:08:25;6.57;;;3.90;;
43345;SDS011;28937;51.160;4.146;2023-07-31T07:10:51;6.85;;;3.58;;
43345;SDS011;28937;51.160;4.146;2023-07-31T07:13:17;5.40;;;3.38;;
43345;SDS011;28937;51.160;4.146;2023-07-31T07:15:43;7.30;;;3.50;;
43345;SDS011;28937;51.160;4.146;2023-07-31T07:18:13;9.18;;;3.67;;
43345;SDS011;28937;51.160;4.146;2023-07-31T07:20:39;8.05;;;3.88;;
43345;SDS011;28937;51.160;4.146;2023-07-31T07:23:05;5.35;;;3.33;;
43345;SDS011;28937;51.160;4.146;2023-07-31T07:25:30;5.95;;;3.13;;
43345;SDS011;28937;51.160;4.146;2023-07-31T07:27:57;6.78;;;3.15;;
43345;SDS011;28937;51.160;4.146;2023-07-31T07:30:23;5.82;;;3.58;;
43345;SDS011;28937;51.160;4.146;2023-07-31T07:32:50;7.15;;;3.80;;
43345;SDS011;28937;51.160;4.146;2023-07-31T07:35:15;4.78;;;2.92;;
43345;SDS011;28937;51.160;4.146;2023-07-31T07:37:41;6.68;;;3.53;;
43345;SDS011;28937;51.160;4.146;2023-07-31T07:40:07;6.53;;;3.30;;
43345;SDS011;28937;51.160;4.146;2023-07-31T07:42:33;6.28;;;3.35;;
43345;SDS011;28937;51.160;4.146;2023-07-31T07:44:58;9.18;;;3.83;;
43345;SDS011;28937;51.160;4.146;2023-07-31T07:47:24;13.20;;;4.25;;
43345;SDS011;28937;51.160;4.146;2023-07-31T07:49:50;7.78;;;3.85;;
43345;SDS011;28937;51.160;4.146;2023-07-31T07:52:15;8.80;;;3.42;;
43345;SDS011;28937;51.160;4.146;2023-07-31T07:54:41;11.55;;;3.90;;
43345;SDS011;28937;51.160;4.146;2023-07-31T07:57:06;8.63;;;4.22;;
43345;SDS011;28937;51.160;4.146;2023-07-31T07:59:32;6.47;;;3.35;;
43345;SDS011;28937;51.160;4.146;2023-07-31T08:01:57;6.45;;;3.25;;
43345;SDS011;28937;51.160;4.146;2023-07-31T08:04:23;9.80;;;3.38;;
43345;SDS011;28937;51.160;4.146;2023-07-31T08:06:48;6.65;;;3.15;;
43345;SDS011;28937;51.160;4.146;2023-07-31T08:09:14;5.45;;;3.05;;
43345;SDS011;28937;51.160;4.146;2023-07-31T08:11:40;6.18;;;3.67;;
43345;SDS011;28937;51.160;4.146;2023-07-31T08:14:05;6.50;;;3.45;;
43345;SDS011;28937;51.160;4.146;2023-07-31T08:16:31;9.18;;;3.42;;
43345;SDS011;28937;51.160;4.146;2023-07-31T08:18:56;6.38;;;2.90;;
43345;SDS011;28937;51.160;4.146;2023-07-31T08:21:22;7.80;;;3.30;;
43345;SDS011;28937;51.160;4.146;2023-07-31T08:23:48;8.68;;;3.15;;
43345;SDS011;28937;51.160;4.146;2023-07-31T08:26:17;5.40;;;3.45;;
43345;SDS011;28937;51.160;4.146;2023-07-31T08:28:43;6.63;;;2.95;;
43345;SDS011;28937;51.160;4.146;2023-07-31T08:31:09;7.05;;;3.45;;
43345;SDS011;28937;51.160;4.146;2023-07-31T08:33:36;5.07;;;2.75;;
43345;SDS011;28937;51.160;4.146;2023-07-31T08:36:02;6.03;;;3.00;;
43345;SDS011;28937;51.160;4.146;2023-07-31T08:38:28;6.85;;;2.60;;
43345;SDS011;28937;51.160;4.146;2023-07-31T08:40:54;7.50;;;3.20;;
43345;SDS011;28937;51.160;4.146;2023-07-31T08:43:21;8.13;;;3.03;;
43345;SDS011;28937;51.160;4.146;2023-07-31T08:45:50;5.30;;;2.60;;
43345;SDS011;28937;51.160;4.146;2023-07-31T08:48:16;5.38;;;2.80;;
43345;SDS011;28937;51.160;4.146;2023-07-31T08:50:43;4.10;;;2.70;;
43345;SDS011;28937;51.160;4.146;2023-07-31T08:53:08;4.97;;;2.70;;
43345;SDS011;28937;51.160;4.146;2023-07-31T08:55:35;4.97;;;2.72;;
43345;SDS011;28937;51.160;4.146;2023-07-31T08:58:02;6.63;;;2.80;;
43345;SDS011;28937;51.160;4.146;2023-07-31T09:00:29;4.45;;;2.85;;
43345;SDS011;28937;51.160;4.146;2023-07-31T09:03:03;4.65;;;2.55;;
43345;SDS011;28937;51.160;4.146;2023-07-31T09:05:35;6.00;;;2.88;;
43345;SDS011;28937;51.160;4.146;2023-07-31T09:08:04;5.47;;;2.22;;
43345;SDS011;28937;51.160;4.146;2023-07-31T09:10:32;4.03;;;2.72;;
43345;SDS011;28937;51.160;4.146;2023-07-31T09:12:58;7.18;;;2.65;;
43345;SDS011;28937;51.160;4.146;2023-07-31T09:15:24;3.00;;;2.33;;
43345;SDS011;28937;51.160;4.146;2023-07-31T09:17:58;4.03;;;2.60;;
43345;SDS011;28937;51.160;4.146;2023-07-31T09:20:26;4.70;;;2.25;;
43345;SDS011;28937;51.160;4.146;2023-07-31T09:22:51;3.38;;;2.33;;
43345;SDS011;28937;51.160;4.146;2023-07-31T09:25:24;5.55;;;2.70;;
43345;SDS011;28937;51.160;4.146;2023-07-31T09:28:00;4.80;;;2.40;;
43345;SDS011;28937;51.160;4.146;2023-07-31T09:30:28;4.82;;;2.65;;
43345;SDS011;28937;51.160;4.146;2023-07-31T09:33:01;5.65;;;2.17;;
43345;SDS011;28937;51.160;4.146;2023-07-31T09:37:56;4.72;;;2.45;;
43345;SDS011;28937;51.160;4.146;2023-07-31T09:43:02;5.88;;;2.45;;
43345;SDS011;28937;51.160;4.146;2023-07-31T09:45:36;5.18;;;2.80;;
43345;SDS011;28937;51.160;4.146;2023-07-31T09:48:03;4.95;;;2.60;;
43345;SDS011;28937;51.160;4.146;2023-07-31T09:50:31;5.32;;;2.42;;
43345;SDS011;28937;51.160;4.146;2023-07-31T09:52:57;4.93;;;3.05;;
43345;SDS011;28937;51.160;4.146;2023-07-31T09:55:23;4.90;;;3.22;;
43345;SDS011;28937;51.160;4.146;2023-07-31T09:57:49;5.18;;;2.85;;
43345;SDS011;28937;51.160;4.146;2023-07-31T10:00:16;5.47;;;3.30;;
43345;SDS011;28937;51.160;4.146;2023-07-31T10:02:45;8.18;;;3.28;;
43345;SDS011;28937;51.160;4.146;2023-07-31T10:05:14;7.70;;;3.30;;
43345;SDS011;28937;51.160;4.146;2023-07-31T10:07:49;4.63;;;3.00;;
43345;SDS011;28937;51.160;4.146;2023-07-31T10:10:19;5.35;;;3.50;;
43345;SDS011;28937;51.160;4.146;2023-07-31T10:12:46;5.78;;;3.17;;
43345;SDS011;28937;51.160;4.146;2023-07-31T10:15:13;7.82;;;3.10;;
43345;SDS011;28937;51.160;4.146;2023-07-31T10:17:40;7.25;;;3.17;;
43345;SDS011;28937;51.160;4.146;2023-07-31T10:20:06;5.18;;;3.22;;
43345;SDS011;28937;51.160;4.146;2023-07-31T10:22:32;6.60;;;3.20;;
43345;SDS011;28937;51.160;4.146;2023-07-31T10:24:59;6.32;;;3.53;;
43345;SDS011;28937;51.160;4.146;2023-07-31T10:27:26;5.28;;;3.25;;
43345;SDS011;28937;51.160;4.146;2023-07-31T10:29:52;4.78;;;3.58;;
43345;SDS011;28937;51.160;4.146;2023-07-31T10:32:20;9.55;;;4.10;;
43345;SDS011;28937;51.160;4.146;2023-07-31T10:34:46;7.47;;;3.75;;
43345;SDS011;28937;51.160;4.146;2023-07-31T10:39:54;5.53;;;3.58;;
43345;SDS011;28937;51.160;4.146;2023-07-31T10:45:31;7.15;;;4.05;;
43345;SDS011;28937;51.160;4.146;2023-07-31T10:48:12;6.13;;;4.07;;
43345;SDS011;28937;51.160;4.146;2023-07-31T10:50:40;5.95;;;4.05;;
43345;SDS011;28937;51.160;4.146;2023-07-31T10:53:35;6.13;;;4.30;;
43345;SDS011;28937;51.160;4.146;2023-07-31T10:56:02;6.18;;;4.00;;
43345;SDS011;28937;51.160;4.146;2023-07-31T10:58:29;9.00;;;4.30;;
43345;SDS011;28937;51.160;4.146;2023-07-31T11:00:57;9.90;;;4.78;;
43345;SDS011;28937;51.160;4.146;2023-07-31T11:03:27;6.60;;;4.40;;
43345;SDS011;28937;51.160;4.146;2023-07-31T11:06:09;5.80;;;4.10;;
43345;SDS011;28937;51.160;4.146;2023-07-31T11:08:40;7.45;;;4.55;;
43345;SDS011;28937;51.160;4.146;2023-07-31T11:11:08;6.40;;;4.38;;
43345;SDS011;28937;51.160;4.146;2023-07-31T11:16:11;9.45;;;6.60;;
43345;SDS011;28937;51.160;4.146;2023-07-31T11:18:41;9.18;;;6.15;;
43345;SDS011;28937;51.160;4.146;2023-07-31T11:21:14;8.50;;;5.82;;
43345;SDS011;28937;51.160;4.146;2023-07-31T11:23:45;9.60;;;5.60;;
43345;SDS011;28937;51.160;4.146;2023-07-31T11:26:11;9.93;;;5.80;;
43345;SDS011;28937;51.160;4.146;2023-07-31T11:28:37;7.38;;;5.13;;
43345;SDS011;28937;51.160;4.146;2023-07-31T11:31:03;8.57;;;5.35;;
43345;SDS011;28937;51.160;4.146;2023-07-31T11:33:29;7.80;;;5.85;;
43345;SDS011;28937;51.160;4.146;2023-07-31T11:35:55;7.47;;;5.90;;
43345;SDS011;28937;51.160;4.146;2023-07-31T11:40:51;10.18;;;5.32;;
43345;SDS011;28937;51.160;4.146;2023-07-31T11:43:19;9.07;;;4.88;;
43345;SDS011;28937;51.160;4.146;2023-07-31T11:45:49;8.75;;;6.03;;
43345;SDS011;28937;51.160;4.146;2023-07-31T11:48:22;8.15;;;5.30;;
43345;SDS011;28937;51.160;4.146;2023-07-31T11:50:49;8.88;;;5.13;;
43345;SDS011;28937;51.160;4.146;2023-07-31T11:53:17;8.25;;;5.25;;
43345;SDS011;28937;51.160;4.146;2023-07-31T11:55:45;9.88;;;5.20;;
43345;SDS011;28937;51.160;4.146;2023-07-31T11:58:11;8.10;;;5.15;;
43345;SDS011;28937;51.160;4.146;2023-07-31T12:00:39;10.98;;;5.00;;
43345;SDS011;28937;51.160;4.146;2023-07-31T12:03:05;8.43;;;5.07;;
43345;SDS011;28937;51.160;4.146;2023-07-31T12:05:31;8.65;;;5.43;;
43345;SDS011;28937;51.160;4.146;2023-07-31T12:07:58;10.65;;;5.68;;
43345;SDS011;28937;51.160;4.146;2023-07-31T12:12:59;9.10;;;5.90;;
43345;SDS011;28937;51.160;4.146;2023-07-31T12:15:33;10.48;;;6.05;;
43345;SDS011;28937;51.160;4.146;2023-07-31T12:17:59;8.10;;;5.32;;
43345;SDS011;28937;51.160;4.146;2023-07-31T12:20:25;7.88;;;5.32;;
43345;SDS011;28937;51.160;4.146;2023-07-31T12:22:51;7.63;;;5.25;;
43345;SDS011;28937;51.160;4.146;2023-07-31T12:25:17;8.98;;;5.72;;
43345;SDS011;28937;51.160;4.146;2023-07-31T12:27:45;9.35;;;5.60;;
43345;SDS011;28937;51.160;4.146;2023-07-31T12:30:29;7.95;;;5.00;;
43345;SDS011;28937;51.160;4.146;2023-07-31T12:32:57;10.02;;;5.72;;
43345;SDS011;28937;51.160;4.146;2023-07-31T12:35:39;8.65;;;4.85;;
43345;SDS011;28937;51.160;4.146;2023-07-31T12:38:11;8.02;;;4.93;;
43345;SDS011;28937;51.160;4.146;2023-07-31T12:40:37;8.60;;;5.07;;
43345;SDS011;28937;51.160;4.146;2023-07-31T12:43:04;10.52;;;6.00;;
43345;SDS011;28937;51.160;4.146;2023-07-31T12:45:31;11.63;;;5.38;;
43345;SDS011;28937;51.160;4.146;2023-07-31T12:47:57;10.98;;;5.80;;
43345;SDS011;28937;51.160;4.146;2023-07-31T12:50:24;9.25;;;5.22;;
43345;SDS011;28937;51.160;4.146;2023-07-31T12:52:50;10.07;;;5.72;;
43345;SDS011;28937;51.160;4.146;2023-07-31T12:55:16;10.48;;;5.13;;
43345;SDS011;28937;51.160;4.146;2023-07-31T12:57:43;10.25;;;5.68;;
43345;SDS011;28937;51.160;4.146;2023-07-31T13:00:09;10.30;;;5.70;;
43345;SDS011;28937;51.160;4.146;2023-07-31T13:02:35;11.07;;;5.60;;
43345;SDS011;28937;51.160;4.146;2023-07-31T13:05:01;9.93;;;5.55;;
43345;SDS011;28937;51.160;4.146;2023-07-31T13:07:26;12.02;;;6.45;;
43345;SDS011;28937;51.160;4.146;2023-07-31T13:09:52;7.72;;;5.28;;
43345;SDS011;28937;51.160;4.146;2023-07-31T13:12:17;8.85;;;5.47;;
43345;SDS011;28937;51.160;4.146;2023-07-31T13:14:43;7.97;;;5.05;;
43345;SDS011;28937;51.160;4.146;2023-07-31T13:17:09;8.75;;;5.63;;
43345;SDS011;28937;51.160;4.146;2023-07-31T13:19:34;7.68;;;5.25;;
43345;SDS011;28937;51.160;4.146;2023-07-31T13:22:00;8.63;;;5.72;;
43345;SDS011;28937;51.160;4.146;2023-07-31T13:24:25;6.93;;;4.78;;
43345;SDS011;28937;51.160;4.146;2023-07-31T13:26:51;10.70;;;5.18;;
43345;SDS011;28937;51.160;4.146;2023-07-31T13:29:16;8.43;;;5.45;;
43345;SDS011;28937;51.160;4.146;2023-07-31T13:31:42;8.38;;;4.82;;
43345;SDS011;28937;51.160;4.146;2023-07-31T13:34:08;8.60;;;5.00;;
43345;SDS011;28937;51.160;4.146;2023-07-31T13:36:33;6.82;;;4.20;;
43345;SDS011;28937;51.160;4.146;2023-07-31T13:38:59;8.27;;;4.78;;
43345;SDS011;28937;51.160;4.146;2023-07-31T13:41:26;7.50;;;4.60;;
43345;SDS011;28937;51.160;4.146;2023-07-31T13:43:51;10.10;;;4.43;;
43345;SDS011;28937;51.160;4.146;2023-07-31T13:46:17;8.45;;;4.68;;
43345;SDS011;28937;51.160;4.146;2023-07-31T13:48:42;6.55;;;4.57;;
43345;SDS011;28937;51.160;4.146;2023-07-31T13:51:08;5.57;;;3.97;;
43345;SDS011;28937;51.160;4.146;2023-07-31T13:53:33;9.85;;;3.67;;
43345;SDS011;28937;51.160;4.146;2023-07-31T13:55:59;5.55;;;3.75;;
43345;SDS011;28937;51.160;4.146;2023-07-31T13:58:25;6.95;;;3.47;;
43345;SDS011;28937;51.160;4.146;2023-07-31T14:00:50;3.90;;;2.40;;
43345;SDS011;28937;51.160;4.146;2023-07-31T14:03:16;4.97;;;2.45;;
43345;SDS011;28937;51.160;4.146;2023-07-31T14:05:41;4.47;;;1.02;;
43345;SDS011;28937;51.160;4.146;2023-07-31T14:08:07;3.15;;;1.63;;
43345;SDS011;28937;51.160;4.146;2023-07-31T14:10:33;2.42;;;0.70;;
43345;SDS011;28937;51.160;4.146;2023-07-31T14:12:58;2.03;;;1.00;;
43345;SDS011;28937;51.160;4.146;2023-07-31T14:15:24;2.75;;;1.42;;
43345;SDS011;28937;51.160;4.146;2023-07-31T14:17:49;1.52;;;0.88;;
43345;SDS011;28937;51.160;4.146;2023-07-31T14:20:15;1.15;;;0.55;;
43345;SDS011;28937;51.160;4.146;2023-07-31T14:22:41;2.55;;;1.05;;
43345;SDS011;28937;51.160;4.146;2023-07-31T14:25:06;1.83;;;0.80;;
43345;SDS011;28937;51.160;4.146;2023-07-31T14:27:35;1.23;;;0.88;;
43345;SDS011;28937;51.160;4.146;2023-07-31T14:30:01;2.97;;;1.50;;
43345;SDS011;28937;51.160;4.146;2023-07-31T14:32:27;2.65;;;1.60;;
43345;SDS011;28937;51.160;4.146;2023-07-31T14:34:52;2.33;;;1.73;;
43345;SDS011;28937;51.160;4.146;2023-07-31T14:37:19;2.60;;;1.25;;
43345;SDS011;28937;51.160;4.146;2023-07-31T14:39:45;1.67;;;1.33;;
43345;SDS011;28937;51.160;4.146;2023-07-31T14:42:10;3.85;;;1.52;;
43345;SDS011;28937;51.160;4.146;2023-07-31T14:44:36;5.85;;;2.70;;
43345;SDS011;28937;51.160;4.146;2023-07-31T14:47:03;2.88;;;1.70;;
43345;SDS011;28937;51.160;4.146;2023-07-31T14:49:29;3.03;;;1.55;;
43345;SDS011;28937;51.160;4.146;2023-07-31T14:51:54;3.08;;;2.58;;
43345;SDS011;28937;51.160;4.146;2023-07-31T14:54:20;2.30;;;1.08;;
43345;SDS011;28937;51.160;4.146;2023-07-31T14:56:46;3.85;;;2.13;;
43345;SDS011;28937;51.160;4.146;2023-07-31T14:59:11;6.10;;;1.92;;
43345;SDS011;28937;51.160;4.146;2023-07-31T15:01:37;4.35;;;2.47;;
43345;SDS011;28937;51.160;4.146;2023-07-31T15:04:03;4.32;;;2.42;;
43345;SDS011;28937;51.160;4.146;2023-07-31T15:06:29;4.47;;;2.40;;